ADDS TAF Board (Experimental) INFO Settings

IDs: Format: Expanded Condensed

KIAH - Houston/Bush Intl, TX, US

Issued at 1009 UTC 26 Apr 2015
Updated at: 1131 UTC 26 Apr 2015
Time1053Z 26/12Z 26/13Z 26/14Z 26/15Z 26/16Z 26/17Z 26/18Z 26/19Z 26/20Z 26/21Z 26/22Z 26/23Z 27/00Z
Type OBS PRVL
  [TEMP]  
PRVL
  [TEMP]  
PRVL
  [TEMP]  
PRVL
  [TEMP]  
PRVL PRVL PRVL PRVL PRVL PRVL PRVL PRVL PRVL
VIS 6 4
  [5]  
4
  [5]  
4
  [5]  
4
  [5]  
>6 >6 >6 >6 >6 >6 >6 >6 >6
CIG 8 4
  [7]  
4
  [7]  
4
  [7]  
4
  [7]  
-- -- 150 150 150 150 150 150 150
Cover OVC OVC
  [BKN]  
OVC
  [BKN]  
OVC
  [BKN]  
OVC
  [BKN]  
SCT SCT BKN BKN BKN BKN BKN BKN BKN
FltCat IFR LIFR
  [IFR]  
LIFR
  [IFR]  
LIFR
  [IFR]  
LIFR
  [IFR]  
VFR VFR VFR VFR VFR VFR VFR VFR VFR
WX BR BR
  [BR]  
BR
  [BR]  
BR
  [BR]  
BR
  [BR]  
-- -- -- -- -- -- -- -- --
WDir 200 VRB
[VRB]
VRB
[VRB]
VRB
[VRB]
VRB
[VRB]
190 190 160 160 160 160 160 160 160
WSpd 3 0
  [0]  
0
  [0]  
0
  [0]  
0
  [0]  
5 5 10 10 10 10 10 10 10
WGst -- --
  [--]  
--
  [--]  
--
  [--]  
--
  [--]  
-- -- -- -- -- -- -- -- --
R08/26
XWnd -3 0 0 0 0 -5 -5 -9 -9 -9 -9 -9 -9 -9
XGst -- 0 0 0 0 -- -- -- -- -- -- -- -- --
HWnd -1 0 0 0 0 -1 -1 3 3 3 3 3 3 3
HGst -- 0 0 0 0 -- -- -- -- -- -- -- -- --
R09/27
XWnd -3 0 0 0 0 -5 -5 -9 -9 -9 -9 -9 -9 -9
XGst -- 0 0 0 0 -- -- -- -- -- -- -- -- --
HWnd -1 0 0 0 0 -1 -1 3 3 3 3 3 3 3
HGst -- 0 0 0 0 -- -- -- -- -- -- -- -- --
R15/33
XWnd -2 0 0 0 0 -3 -3 -1 -1 -1 -1 -1 -1 -1
XGst -- 0 0 0 0 -- -- -- -- -- -- -- -- --
HWnd 2 0 0 0 0 4 4 10 10 10 10 10 10 10
HGst -- 0 0 0 0 -- -- -- -- -- -- -- -- --

NOTE: TEMPO conditions in [brackets]. Keep in mind TEMPO conditions might be better (lower impact) than prevailing conditions.

Raw TAF
KIAH 261009Z 2610/2712 00000KT 4SM BR OVC004
  TEMPO 2612/2616 5SM BR BKN007
  FM261600 19005KT P6SM FEW020 SCT120
  FM261800 16010KT P6SM FEW030 BKN150
  FM270300 14008KT P6SM SCT020
  FM270900 15009KT P6SM BKN020


Raw METAR
KIAH 261053Z 20003KT 6SM BR OVC008 22/20 A2971 RMK AO2 SLP061 T02170200
KIAH 261005Z VRB03KT 4SM BR BKN005 OVC012 22/21 A2971 RMK AO2
KIAH 260953Z 00000KT 1/2SM BR OVC004 22/21 A2971 RMK AO2 SFC VIS 4 SLP058 T02170206
KIAH 260853Z 21003KT 1/2SM BR OVC003 21/21 A2970 RMK AO2 SFC VIS 2 1/2 SLP056 T02110206 55014
KIAH 260842Z 00000KT 1/2SM BR OVC003 21/21 A2969 RMK AO2 SFC VIS 2 1/2

METAR Board
Radar Display
Forecast Discussion

TAF Board Legend

Potential Impact
Threat None Slight Moderate High
Visibility (sm) ≥5.1 5.1>X≥3 3>X≥1 <1
Ceiling (100 ft) ≥30.1 30.1>X≥10 10>X≥5 <5
Wind Speed (kt) <10 10≤X<20 20≤X<30 ≥30
Wind Gust (kt) <15 15≤X<25 25≤X<35 ≥35
Weather No Wx Reported VCTS,-TS,-FZRA,SN TS,FZRA +TS,+FZRA,+SN